Time;durP1;ratioP1;P1;durP2;ratioP2;P2;SDS_P1;SDS_P2;PMS_P1;PMS_P2;Temp;Humidity;BMP_temperature;BMP_pressure;BME280_temperature;BME280_humidity;BME280_pressure;Samples;Min_cycle;Max_cycle;Signal;HPM_P1;HPM_P2
2022/06/09 00:01:28;;;;;;;6.90;1.58;;;20.30;68.90;;;;;;4432683;32;20122;-72
2022/06/09 00:04:07;;;;;;;2.58;1.00;;;20.30;68.90;;;;;;4432485;32;20492;-73
2022/06/09 00:06:43;;;;;;;2.83;1.15;;;20.30;68.90;;;;;;4432479;32;20551;-72
2022/06/09 00:09:09;;;;;;;4.53;1.00;;;20.30;68.90;;;;;;4432717;32;20164;-72
2022/06/09 00:11:40;;;;;;;3.08;1.10;;;20.30;68.90;;;;;;4432614;32;20086;-73
2022/06/09 00:14:07;;;;;;;3.17;1.10;;;20.30;68.90;;;;;;4432363;32;20093;-72
2022/06/09 00:16:34;;;;;;;5.03;1.38;;;20.30;68.90;;;;;;4432302;32;20122;-72
2022/06/09 00:19:01;;;;;;;4.70;1.00;;;20.20;68.90;;;;;;4432100;32;20083;-72
2022/06/09 00:21:26;;;;;;;3.35;1.20;;;20.30;68.90;;;;;;4432391;32;20066;-72
2022/06/09 00:23:52;;;;;;;3.60;1.10;;;20.30;68.90;;;;;;4431828;32;20188;-73
2022/06/09 00:26:18;;;;;;;2.03;1.05;;;20.30;68.90;;;;;;4432449;32;20189;-72
2022/06/09 00:28:44;;;;;;;4.30;1.30;;;20.20;68.80;;;;;;4432287;32;20204;-72
2022/06/09 00:31:10;;;;;;;6.38;1.45;;;20.30;68.90;;;;;;4418548;32;20091;-72
2022/06/09 00:33:36;;;;;;;3.88;1.20;;;20.20;68.90;;;;;;4431959;32;20070;-72
2022/06/09 00:36:01;;;;;;;3.10;1.10;;;20.30;68.90;;;;;;4418024;32;20067;-73
2022/06/09 00:38:27;;;;;;;3.97;1.20;;;20.20;68.80;;;;;;4431800;32;20132;-72
2022/06/09 00:40:57;;;;;;;4.25;1.33;;;20.20;68.90;;;;;;4432057;32;20508;-73
2022/06/09 00:43:23;;;;;;;3.05;1.10;;;20.20;68.80;;;;;;4431764;32;20595;-73
2022/06/09 00:46:03;;;;;;;2.55;1.05;;;20.20;68.80;;;;;;4432212;32;20088;-72
2022/06/09 00:48:35;;;;;;;3.40;1.20;;;20.20;68.70;;;;;;4431836;32;20097;-72
2022/06/09 00:51:11;;;;;;;3.47;0.95;;;20.20;68.80;;;;;;4432066;32;20089;-72
2022/06/09 00:53:40;;;;;;;3.10;1.17;;;20.20;68.00;;;;;;4431177;32;20126;-73
2022/06/09 00:56:08;;;;;;;3.17;1.25;;;20.20;68.80;;;;;;4431655;32;20141;-73
2022/06/09 00:58:37;;;;;;;2.25;0.90;;;20.20;68.80;;;;;;4431140;32;20093;-73
2022/06/09 01:01:08;;;;;;;2.58;1.10;;;20.20;68.80;;;;;;4431492;32;20225;-72
2022/06/09 01:03:43;;;;;;;2.25;0.98;;;20.20;68.80;;;;;;4417545;32;20148;-73
2022/06/09 01:06:18;;;;;;;2.75;1.15;;;20.20;69.60;;;;;;4431513;32;20074;-72
2022/06/09 01:09:01;;;;;;;4.63;1.30;;;20.20;68.80;;;;;;4431657;32;20074;-72
2022/06/09 01:11:27;;;;;;;3.27;0.97;;;20.20;68.80;;;;;;4431532;32;20062;-72
2022/06/09 01:13:56;;;;;;;4.55;1.35;;;20.20;68.80;;;;;;4431552;32;20169;-72
2022/06/09 01:16:44;;;;;;;3.72;1.25;;;20.20;68.80;;;;;;4431264;32;20090;-73
2022/06/09 01:19:25;;;;;;;3.40;0.98;;;20.20;68.70;;;;;;4431256;32;20122;-72
2022/06/09 01:22:20;;;;;;;3.83;1.00;;;20.20;68.70;;;;;;4431091;32;20570;-73
2022/06/09 01:25:23;;;;;;;1.88;1.00;;;20.20;68.70;;;;;;4431183;32;20086;-73
2022/06/09 01:28:30;;;;;;;3.75;1.10;;;20.20;68.60;;;;;;4431045;32;20084;-73
2022/06/09 01:31:01;;;;;;;3.88;1.35;;;20.20;68.60;;;;;;4417549;32;20589;-72
2022/06/09 01:33:44;;;;;;;2.22;0.82;;;20.10;68.60;;;;;;4431140;32;20163;-73
2022/06/09 01:36:21;;;;;;;2.25;0.90;;;20.10;68.60;;;;;;4431266;32;20545;-72
2022/06/09 01:38:56;;;;;;;2.65;1.08;;;20.10;68.60;;;;;;4431294;32;20126;-72
2022/06/09 01:41:24;;;;;;;3.35;1.08;;;20.10;68.60;;;;;;4432154;32;20172;-73
2022/06/09 01:43:51;;;;;;;2.88;1.15;;;20.10;68.60;;;;;;4432291;32;20097;-73
2022/06/09 01:46:28;;;;;;;2.65;1.00;;;20.10;68.60;;;;;;4433039;32;20082;-73
2022/06/09 01:49:00;;;;;;;3.13;0.75;;;20.10;68.60;;;;;;4432369;32;20187;-73
2022/06/09 01:51:30;;;;;;;3.53;0.82;;;20.10;68.60;;;;;;4432550;32;20089;-72
2022/06/09 01:54:00;;;;;;;1.65;0.80;;;20.10;68.60;;;;;;4431161;32;20508;-72
2022/06/09 01:56:32;;;;;;;4.25;0.90;;;20.10;68.60;;;;;;4430953;32;20077;-72
2022/06/09 01:59:13;;;;;;;1.15;0.75;;;20.10;68.50;;;;;;4430576;32;20152;-73
2022/06/09 02:01:53;;;;;;;2.78;0.95;;;20.10;68.50;;;;;;4431096;32;20074;-72
2022/06/09 02:04:26;;;;;;;2.35;0.90;;;20.10;68.50;;;;;;4430523;32;20086;-72
2022/06/09 02:06:52;;;;;;;1.90;0.77;;;20.10;68.50;;;;;;4431068;32;20086;-72
2022/06/09 02:09:19;;;;;;;3.15;1.00;;;20.10;68.50;;;;;;4430686;32;20083;-72
2022/06/09 02:11:49;;;;;;;3.25;0.70;;;20.10;68.50;;;;;;4430602;32;20140;-73
2022/06/09 02:14:16;;;;;;;3.08;0.90;;;20.10;68.50;;;;;;4430611;32;20066;-73
2022/06/09 02:16:42;;;;;;;2.47;0.80;;;20.10;68.50;;;;;;4430626;32;20532;-72
2022/06/09 02:19:08;;;;;;;2.17;0.88;;;20.10;68.50;;;;;;4430407;32;20279;-73
2022/06/09 02:21:35;;;;;;;1.70;0.70;;;20.10;68.50;;;;;;4430583;32;20058;-72
2022/06/09 02:24:01;;;;;;;1.63;0.80;;;20.10;68.50;;;;;;4430135;32;20070;-73
2022/06/09 02:26:28;;;;;;;2.55;0.88;;;20.10;68.50;;;;;;4430125;32;20483;-72
2022/06/09 02:28:54;;;;;;;2.58;1.10;;;20.10;68.50;;;;;;4430346;32;20507;-73
2022/06/09 02:31:22;;;;;;;3.22;0.85;;;20.10;68.50;;;;;;4430044;32;20078;-73
2022/06/09 02:33:49;;;;;;;2.60;0.90;;;20.10;68.60;;;;;;4430270;32;20144;-73
2022/06/09 02:36:15;;;;;;;3.17;1.10;;;20.10;68.60;;;;;;4430296;32;20164;-73
2022/06/09 02:38:41;;;;;;;1.80;0.85;;;20.10;68.60;;;;;;4430159;32;20086;-73
2022/06/09 02:41:07;;;;;;;2.45;0.88;;;20.10;68.60;;;;;;4416188;32;20268;-73
2022/06/09 02:43:34;;;;;;;1.48;0.68;;;20.10;68.60;;;;;;4429930;32;20106;-73
2022/06/09 02:46:01;;;;;;;1.67;0.85;;;20.10;68.60;;;;;;4430325;32;20093;-72
2022/06/09 02:48:27;;;;;;;2.75;0.80;;;20.10;68.60;;;;;;4430143;32;20079;-72
2022/06/09 02:50:54;;;;;;;2.72;1.00;;;20.10;68.60;;;;;;4430096;32;20578;-72
2022/06/09 02:53:21;;;;;;;1.92;0.80;;;20.10;68.60;;;;;;4430192;32;20527;-73
2022/06/09 02:55:48;;;;;;;1.73;0.80;;;20.10;68.60;;;;;;4430069;32;20082;-73
2022/06/09 02:58:13;;;;;;;1.90;0.70;;;20.10;68.60;;;;;;4430181;32;20204;-73
2022/06/09 03:00:40;;;;;;;2.70;1.00;;;20.10;68.60;;;;;;4429250;32;20086;-73
2022/06/09 03:03:11;;;;;;;3.83;0.68;;;20.10;68.70;;;;;;4429948;32;20075;-73
2022/06/09 03:05:37;;;;;;;1.80;1.00;;;20.10;68.70;;;;;;4416115;32;20295;-73
2022/06/09 03:08:06;;;;;;;3.45;0.95;;;20.10;68.70;;;;;;4429913;32;20524;-73
2022/06/09 03:10:33;;;;;;;2.50;0.98;;;20.10;68.60;;;;;;4430108;32;20070;-73
2022/06/09 03:12:59;;;;;;;1.58;0.73;;;20.10;69.50;;;;;;4429881;32;20420;-74
2022/06/09 03:15:26;;;;;;;1.27;0.73;;;20.00;68.60;;;;;;4430141;32;20220;-73
2022/06/09 03:17:52;;;;;;;1.42;0.80;;;20.00;68.60;;;;;;4429934;32;20094;-73
2022/06/09 03:20:25;;;;;;;3.42;0.70;;;20.00;68.60;;;;;;4430027;32;20508;-73
2022/06/09 03:22:50;;;;;;;2.00;0.73;;;20.00;68.50;;;;;;4429656;32;20555;-73
2022/06/09 03:25:17;;;;;;;1.45;0.80;;;20.00;68.60;;;;;;4429726;32;20220;-73
2022/06/09 03:27:43;;;;;;;1.25;0.73;;;20.00;68.50;;;;;;4429523;32;20120;-73
2022/06/09 03:30:10;;;;;;;1.80;0.75;;;20.00;68.50;;;;;;4429721;32;20121;-73
2022/06/09 03:32:36;;;;;;;1.67;0.65;;;20.00;68.50;;;;;;4429688;32;20526;-73
2022/06/09 03:35:02;;;;;;;1.58;0.80;;;20.00;68.50;;;;;;4429467;32;20070;-74
2022/06/09 03:37:28;;;;;;;1.08;0.65;;;20.00;68.50;;;;;;4429903;32;20098;-73
2022/06/09 03:39:54;;;;;;;1.55;0.75;;;20.00;68.50;;;;;;4416032;32;20074;-73
2022/06/09 03:42:19;;;;;;;1.33;0.60;;;20.00;68.50;;;;;;4429886;32;20081;-73
2022/06/09 03:44:46;;;;;;;2.10;0.80;;;20.00;68.50;;;;;;4429708;32;20397;-73
2022/06/09 03:47:11;;;;;;;3.03;0.88;;;20.00;68.50;;;;;;4403361;32;20062;-73
2022/06/09 03:49:38;;;;;;;1.95;0.90;;;20.00;68.50;;;;;;4429656;32;20530;-73
2022/06/09 03:52:05;;;;;;;1.42;0.73;;;20.00;68.50;;;;;;4429652;32;20112;-73
2022/06/09 03:54:31;;;;;;;2.03;0.88;;;20.00;68.50;;;;;;4429585;32;20098;-73
2022/06/09 03:56:57;;;;;;;2.55;0.90;;;20.00;68.50;;;;;;4429540;32;20240;-73
2022/06/09 03:59:23;;;;;;;1.50;0.70;;;20.00;68.40;;;;;;4429472;32;20433;-73
2022/06/09 04:01:50;;;;;;;1.65;0.75;;;20.00;68.40;;;;;;4429686;32;20101;-73
2022/06/09 04:04:15;;;;;;;1.77;0.70;;;20.00;68.40;;;;;;4429786;32;20404;-73
2022/06/09 04:06:42;;;;;;;3.13;0.90;;;20.00;68.40;;;;;;4415954;32;20085;-73
2022/06/09 04:09:08;;;;;;;1.27;0.75;;;20.00;68.40;;;;;;4429159;32;20132;-73
2022/06/09 04:11:34;;;;;;;2.63;0.80;;;20.00;68.40;;;;;;4431106;32;20118;-73
2022/06/09 04:14:00;;;;;;;1.33;0.68;;;20.00;68.40;;;;;;4418200;32;20090;-73
2022/06/09 04:16:38;;;;;;;2.58;0.70;;;19.90;68.30;;;;;;4431939;32;20066;-73
2022/06/09 04:19:07;;;;;;;1.15;0.80;;;20.00;68.30;;;;;;4432074;32;20567;-73
2022/06/09 04:21:35;;;;;;;1.20;0.70;;;20.00;68.40;;;;;;4432130;32;20118;-73
2022/06/09 04:24:01;;;;;;;1.83;0.80;;;20.00;68.40;;;;;;4431903;32;20070;-74
2022/06/09 04:26:30;;;;;;;1.35;0.80;;;19.90;68.30;;;;;;4432245;32;20094;-72
2022/06/09 04:28:56;;;;;;;1.50;0.85;;;19.90;68.30;;;;;;4432159;32;20093;-72
2022/06/09 04:31:22;;;;;;;1.60;0.63;;;19.90;68.30;;;;;;4432440;32;20090;-73
2022/06/09 04:33:48;;;;;;;1.75;0.80;;;20.00;68.40;;;;;;4431910;32;20075;-73
2022/06/09 04:36:15;;;;;;;4.00;1.05;;;19.90;68.30;;;;;;4432259;32;20071;-73
2022/06/09 04:38:41;;;;;;;1.00;0.68;;;19.90;68.30;;;;;;4431631;32;20169;-73
2022/06/09 04:41:09;;;;;;;1.80;0.75;;;19.90;68.30;;;;;;4432028;32;20642;-73
2022/06/09 04:43:37;;;;;;;1.52;0.80;;;19.90;68.20;;;;;;4418223;32;20086;-73
2022/06/09 04:46:04;;;;;;;1.13;0.98;;;19.90;68.30;;;;;;4431926;32;20212;-73
2022/06/09 04:48:30;;;;;;;2.08;0.80;;;19.90;68.20;;;;;;4432216;32;20083;-73
2022/06/09 04:50:56;;;;;;;1.50;0.95;;;19.90;68.30;;;;;;4431695;32;20534;-73
2022/06/09 04:53:23;;;;;;;1.35;0.75;;;19.90;68.20;;;;;;4431534;32;20128;-73
2022/06/09 04:55:49;;;;;;;1.60;0.70;;;19.90;68.20;;;;;;4431818;32;20067;-73
2022/06/09 04:58:18;;;;;;;1.27;0.85;;;19.90;68.20;;;;;;4431808;32;20500;-73
2022/06/09 05:00:44;;;;;;;1.45;0.88;;;19.90;68.20;;;;;;4431690;32;20224;-73
2022/06/09 05:03:13;;;;;;;1.92;0.80;;;19.90;68.20;;;;;;4431389;32;20528;-73
2022/06/09 05:05:43;;;;;;;1.35;0.77;;;19.90;68.20;;;;;;4431660;32;20500;-73
2022/06/09 05:08:11;;;;;;;1.40;0.70;;;19.90;68.10;;;;;;4431747;32;20133;-73
2022/06/09 05:10:37;;;;;;;1.92;0.80;;;19.90;68.20;;;;;;4431410;32;20101;-73
2022/06/09 05:13:05;;;;;;;1.98;0.70;;;19.90;68.10;;;;;;4431233;32;20114;-73
2022/06/09 05:15:34;;;;;;;1.02;0.57;;;19.90;68.10;;;;;;4417317;32;20101;-73
2022/06/09 05:18:00;;;;;;;1.88;0.63;;;19.90;68.10;;;;;;4431365;32;20070;-73
2022/06/09 05:20:27;;;;;;;2.25;0.77;;;19.90;68.10;;;;;;4430906;32;20468;-73
2022/06/09 05:22:53;;;;;;;1.30;0.90;;;19.90;68.10;;;;;;4430235;32;20066;-73
2022/06/09 05:25:19;;;;;;;1.85;0.73;;;19.90;68.10;;;;;;4431285;32;20207;-73
2022/06/09 05:27:45;;;;;;;0.77;0.60;;;19.90;68.10;;;;;;4431537;32;20078;-73
2022/06/09 05:30:24;;;;;;;2.65;0.80;;;19.90;68.10;;;;;;4431242;32;20089;-73
2022/06/09 05:32:50;;;;;;;1.10;0.90;;;19.90;68.10;;;;;;4431564;32;20144;-73
2022/06/09 05:35:16;;;;;;;1.80;0.80;;;19.90;68.20;;;;;;4431121;32;20129;-73
2022/06/09 05:45:59;;;;;;;1.27;0.85;;;19.90;68.10;;;;;;4431340;32;20097;-74
2022/06/09 05:48:25;;;;;;;1.25;0.77;;;19.90;68.10;;;;;;4417090;32;20082;-73
2022/06/09 05:50:52;;;;;;;2.90;1.00;;;19.90;68.20;;;;;;4430580;32;20074;-73
2022/06/09 05:53:18;;;;;;;1.92;1.00;;;19.90;68.10;;;;;;4430951;32;20216;-73
2022/06/09 05:55:45;;;;;;;1.33;0.68;;;19.90;68.10;;;;;;4430534;32;20086;-73
2022/06/09 05:58:11;;;;;;;1.88;0.80;;;19.90;68.10;;;;;;4430779;32;20085;-73
2022/06/09 06:00:38;;;;;;;2.85;0.82;;;19.90;68.10;;;;;;4430789;32;20098;-73
2022/06/09 06:03:04;;;;;;;1.17;0.70;;;19.90;68.10;;;;;;4430907;32;20224;-73
2022/06/09 06:08:15;;;;;;;1.35;0.88;;;19.90;68.10;;;;;;4430682;32;20071;-73
2022/06/09 06:10:40;;;;;;;0.77;0.63;;;19.90;68.10;;;;;;4416832;32;20091;-73
2022/06/09 06:13:07;;;;;;;1.35;0.60;;;19.90;68.10;;;;;;4430559;32;20093;-72
2022/06/09 06:15:33;;;;;;;1.05;0.73;;;19.90;68.00;;;;;;4430536;32;20496;-73
2022/06/09 06:18:02;;;;;;;1.65;0.70;;;19.90;68.00;;;;;;4416347;32;20079;-73
2022/06/09 06:20:30;;;;;;;1.38;0.90;;;19.90;68.10;;;;;;4417175;32;20509;-73
2022/06/09 06:22:56;;;;;;;1.50;1.08;;;19.90;68.10;;;;;;4430241;32;20097;-74
2022/06/09 06:25:23;;;;;;;1.75;1.45;;;19.90;68.10;;;;;;4430248;32;20090;-73
2022/06/09 06:27:49;;;;;;;1.27;1.17;;;19.90;68.20;;;;;;4430590;32;20173;-74
2022/06/09 06:30:16;;;;;;;2.05;1.48;;;19.90;68.20;;;;;;4416642;32;20074;-73
2022/06/09 06:32:41;;;;;;;2.22;1.60;;;19.90;68.20;;;;;;4430506;32;20484;-73
2022/06/09 06:35:08;;;;;;;2.75;1.90;;;19.90;69.20;;;;;;4430304;32;20089;-73
2022/06/09 06:37:34;;;;;;;3.20;2.45;;;19.90;68.30;;;;;;4430196;32;20523;-73
2022/06/09 06:40:00;;;;;;;3.47;2.30;;;19.90;68.40;;;;;;4430281;32;20504;-73
2022/06/09 06:42:26;;;;;;;4.65;3.15;;;19.90;68.50;;;;;;4430079;32;20396;-73
2022/06/09 06:44:52;;;;;;;4.85;2.42;;;19.90;68.60;;;;;;4430024;32;20066;-73
2022/06/09 06:47:18;;;;;;;4.35;3.47;;;20.00;68.80;;;;;;4429740;32;20174;-73
2022/06/09 06:49:43;;;;;;;5.20;3.25;;;20.00;68.80;;;;;;4430025;32;20192;-73
2022/06/09 06:52:09;;;;;;;3.95;3.35;;;20.00;68.80;;;;;;4430106;32;20533;-73
2022/06/09 06:54:35;;;;;;;4.55;3.30;;;20.00;68.80;;;;;;4416052;32;20090;-72
2022/06/09 06:57:05;;;;;;;3.67;3.10;;;20.00;68.90;;;;;;4430204;32;20523;-72
2022/06/09 06:59:31;;;;;;;3.83;3.15;;;20.00;68.90;;;;;;4430069;32;20097;-72
2022/06/09 07:01:58;;;;;;;3.83;3.00;;;20.00;68.90;;;;;;4429871;32;20079;-71
2022/06/09 07:04:24;;;;;;;4.43;3.22;;;20.10;68.90;;;;;;4416168;32;20554;-72
2022/06/09 07:06:50;;;;;;;3.83;2.95;;;20.10;69.00;;;;;;4416200;32;20078;-72
2022/06/09 07:09:16;;;;;;;3.95;3.20;;;20.10;69.00;;;;;;4430125;32;20500;-76
2022/06/09 07:11:43;;;;;;;3.42;2.75;;;20.20;69.00;;;;;;4429748;32;20062;-72
2022/06/09 07:14:09;;;;;;;2.90;2.60;;;20.20;69.00;;;;;;4429821;32;20092;-72
2022/06/09 07:16:35;;;;;;;2.85;2.50;;;20.20;69.00;;;;;;4429793;32;20102;-72
2022/06/09 07:19:01;;;;;;;4.63;2.80;;;20.20;68.80;;;;;;4429490;32;20499;-72
2022/06/09 07:21:27;;;;;;;3.72;3.10;;;20.20;68.90;;;;;;4429456;32;20097;-72
2022/06/09 07:23:53;;;;;;;4.32;2.60;;;20.30;69.80;;;;;;4429279;32;20075;-72
2022/06/09 07:26:19;;;;;;;3.80;2.65;;;20.40;69.00;;;;;;4429661;32;20081;-73
2022/06/09 07:28:45;;;;;;;3.17;2.65;;;20.40;69.00;;;;;;4429401;32;20423;-72
2022/06/09 07:31:11;;;;;;;3.55;2.60;;;20.40;68.90;;;;;;4429398;32;20164;-72
2022/06/09 07:33:39;;;;;;;3.35;2.70;;;20.40;68.90;;;;;;4429369;32;20164;-72
2022/06/09 07:36:07;;;;;;;2.53;2.33;;;20.40;68.90;;;;;;4429463;32;20089;-73
2022/06/09 07:38:33;;;;;;;3.08;2.28;;;20.50;69.00;;;;;;4429303;32;20086;-72
2022/06/09 07:40:59;;;;;;;3.10;2.20;;;20.50;68.90;;;;;;4415911;32;20090;-73
2022/06/09 07:43:25;;;;;;;2.80;2.03;;;20.60;69.00;;;;;;4429636;32;20140;-72
2022/06/09 07:45:51;;;;;;;3.45;2.20;;;20.60;69.00;;;;;;4416788;32;20235;-72
2022/06/09 07:48:21;;;;;;;2.55;2.10;;;20.70;68.80;;;;;;4432831;32;20090;-72
2022/06/09 07:50:49;;;;;;;2.00;1.70;;;20.70;68.80;;;;;;4432559;32;20082;-73
2022/06/09 07:53:17;;;;;;;2.22;2.03;;;20.80;68.80;;;;;;4418123;32;20078;-72
2022/06/09 07:55:43;;;;;;;4.97;1.83;;;20.80;68.80;;;;;;4432279;32;20468;-72
2022/06/09 07:58:10;;;;;;;2.50;1.83;;;20.80;68.70;;;;;;4432258;32;20093;-72
2022/06/09 08:00:36;;;;;;;2.22;1.90;;;20.90;68.70;;;;;;4432061;32;20518;-72
2022/06/09 08:03:03;;;;;;;2.05;1.55;;;20.90;68.60;;;;;;4432200;32;20094;-73
2022/06/09 08:05:31;;;;;;;2.60;1.70;;;21.00;68.60;;;;;;4432345;32;20082;-72
2022/06/09 08:07:57;;;;;;;4.38;1.80;;;21.00;68.50;;;;;;4432088;32;20079;-72
2022/06/09 08:10:26;;;;;;;3.58;1.70;;;21.10;68.60;;;;;;4418211;32;20423;-74
2022/06/09 08:12:55;;;;;;;3.92;1.58;;;21.10;68.50;;;;;;4431818;32;20081;-75
2022/06/09 08:15:24;;;;;;;2.05;1.50;;;21.10;68.40;;;;;;4431904;32;20149;-75
2022/06/09 08:17:54;;;;;;;3.45;1.67;;;21.20;68.40;;;;;;4431500;32;20078;-76
2022/06/09 08:20:21;;;;;;;1.58;1.40;;;21.20;68.30;;;;;;4418516;32;20074;-75
2022/06/09 08:22:48;;;;;;;1.42;1.30;;;21.20;68.20;;;;;;4431676;32;20086;-74
2022/06/09 08:25:17;;;;;;;2.28;1.52;;;21.20;68.10;;;;;;4431672;32;20688;-75
2022/06/09 08:27:44;;;;;;;4.65;1.85;;;21.30;68.10;;;;;;4431524;32;20074;-75
2022/06/09 08:30:13;;;;;;;1.80;1.42;;;21.30;68.00;;;;;;4431958;32;20181;-75
2022/06/09 08:32:39;;;;;;;3.20;1.65;;;21.30;67.90;;;;;;4431708;32;20074;-75
2022/06/09 08:35:09;;;;;;;3.28;1.45;;;21.30;67.90;;;;;;4431461;32;20233;-76
2022/06/09 08:37:35;;;;;;;4.68;1.67;;;21.40;67.90;;;;;;4431575;32;20534;-71
2022/06/09 08:40:02;;;;;;;3.00;1.70;;;21.40;67.80;;;;;;4431073;32;20655;-71
2022/06/09 08:42:33;;;;;;;5.35;1.88;;;21.50;67.90;;;;;;4431614;32;20599;-71
2022/06/09 08:45:09;;;;;;;3.75;1.52;;;21.40;67.80;;;;;;4417706;32;20105;-69
2022/06/09 08:47:45;;;;;;;2.25;1.65;;;21.50;67.90;;;;;;4431361;32;20110;-69
2022/06/09 08:50:17;;;;;;;2.85;1.75;;;21.50;68.00;;;;;;4431486;32;20225;-74
2022/06/09 08:53:05;;;;;;;4.25;1.77;;;21.50;67.90;;;;;;4431351;32;20077;-71
2022/06/09 08:55:43;;;;;;;3.67;1.70;;;21.50;68.00;;;;;;4431194;32;20144;-70
2022/06/09 08:58:28;;;;;;;3.75;1.70;;;21.60;68.00;;;;;;4429994;32;20440;-71
2022/06/09 09:01:10;;;;;;;2.55;1.23;;;21.60;67.90;;;;;;4417575;32;20097;-72
2022/06/09 09:03:41;;;;;;;5.20;1.70;;;21.60;67.90;;;;;;4431375;32;20078;-79
2022/06/09 09:06:20;;;;;;;3.97;1.33;;;21.60;67.80;;;;;;4431140;32;20090;-71
2022/06/09 09:08:46;;;;;;;2.78;1.40;;;21.60;67.70;;;;;;4431559;32;20074;-70
2022/06/09 09:11:27;;;;;;;6.55;1.58;;;21.60;67.70;;;;;;4431101;32;20078;-70
2022/06/09 09:14:01;;;;;;;2.58;1.40;;;21.60;67.70;;;;;;4431093;32;20132;-70
2022/06/09 09:16:29;;;;;;;2.55;1.17;;;21.60;67.70;;;;;;4430894;32;20535;-70
2022/06/09 09:19:27;;;;;;;2.80;1.30;;;21.60;67.60;;;;;;4430773;32;20192;-70
2022/06/09 09:22:11;;;;;;;3.97;1.52;;;21.60;67.50;;;;;;4430998;32;20526;-74
2022/06/09 09:24:39;;;;;;;3.03;1.25;;;21.60;67.40;;;;;;4430846;32;20416;-70
2022/06/09 09:27:46;;;;;;;3.40;1.13;;;21.60;67.40;;;;;;4430923;32;20106;-70
2022/06/09 09:30:19;;;;;;;4.22;1.40;;;21.70;67.40;;;;;;4430698;32;20535;-70
2022/06/09 09:32:49;;;;;;;4.50;1.50;;;21.70;67.30;;;;;;4431291;32;20078;-71
2022/06/09 09:35:26;;;;;;;7.20;1.20;;;21.70;67.30;;;;;;4430890;32;20237;-74
2022/06/09 09:37:55;;;;;;;6.07;1.50;;;21.70;67.20;;;;;;4430908;32;20416;-73
2022/06/09 09:40:32;;;;;;;7.00;1.30;;;21.70;67.20;;;;;;4430617;32;20432;-73
2022/06/09 09:43:07;;;;;;;6.63;1.45;;;21.70;67.10;;;;;;4430719;32;20492;-75
2022/06/09 09:45:38;;;;;;;7.07;1.50;;;21.70;67.00;;;;;;4416352;32;20113;-78
2022/06/09 09:48:28;;;;;;;3.30;1.23;;;21.70;66.90;;;;;;4430398;32;20086;-68
2022/06/09 09:50:59;;;;;;;5.40;1.40;;;21.70;66.70;;;;;;4430471;32;20137;-70
2022/06/09 09:53:39;;;;;;;2.30;1.00;;;21.70;66.70;;;;;;4430085;32;20547;-71
2022/06/09 09:56:14;;;;;;;3.63;1.13;;;21.70;66.60;;;;;;4430373;32;20125;-71
2022/06/09 09:58:46;;;;;;;4.45;1.30;;;21.70;66.60;;;;;;4430225;32;20281;-74
2022/06/09 10:01:22;;;;;;;4.25;1.20;;;21.70;66.50;;;;;;4416479;32;20495;-70
2022/06/09 10:09:45;;;;;;;4.88;1.25;;;21.80;66.60;;;;;;4430169;32;20071;-71
2022/06/09 10:12:23;;;;;;;3.85;1.20;;;21.80;66.60;;;;;;4430525;32;20082;-70
2022/06/09 10:15:11;;;;;;;7.72;1.58;;;21.70;66.70;;;;;;4430475;32;20527;-71
2022/06/09 10:17:55;;;;;;;6.75;1.23;;;21.70;66.70;;;;;;4430039;32;20543;-71
2022/06/09 10:20:21;;;;;;;5.72;1.30;;;21.70;66.60;;;;;;4415862;32;20145;-71
2022/06/09 10:23:16;;;;;;;4.68;1.33;;;21.70;66.70;;;;;;4429857;32;20096;-71
2022/06/09 10:25:49;;;;;;;5.40;1.40;;;21.80;66.80;;;;;;4428031;32;20074;-78
2022/06/09 10:28:49;;;;;;;3.17;1.30;;;21.80;66.80;;;;;;4429964;32;20181;-71
2022/06/09 10:31:30;;;;;;;2.08;1.00;;;21.80;66.80;;;;;;4430098;32;20126;-70
2022/06/09 10:34:39;;;;;;;4.78;0.98;;;21.90;66.70;;;;;;4429911;32;20101;-71
2022/06/09 10:37:37;;;;;;;2.88;1.23;;;21.90;66.70;;;;;;4408290;32;20251;-71
2022/06/09 10:40:24;;;;;;;3.53;1.45;;;21.90;66.60;;;;;;4429713;32;20089;-71
2022/06/09 10:43:20;;;;;;;5.97;1.30;;;22.00;66.60;;;;;;4429995;32;20177;-72
2022/06/09 10:46:01;;;;;;;2.90;1.20;;;22.00;66.50;;;;;;4428785;32;20133;-71
2022/06/09 10:55:14;;;;;;;4.35;1.38;;;22.10;66.40;;;;;;4430333;32;20070;-73
2022/06/09 10:57:42;;;;;;;5.78;1.45;;;22.10;66.00;;;;;;4429667;32;20212;-72
2022/06/09 11:00:17;;;;;;;4.20;1.30;;;22.10;66.00;;;;;;4429929;32;20232;-71
2022/06/09 11:03:10;;;;;;;4.63;1.20;;;22.10;65.90;;;;;;4429554;32;20090;-71
2022/06/09 11:06:09;;;;;;;6.95;1.58;;;22.10;65.70;;;;;;4429843;32;20090;-71
2022/06/09 11:08:51;;;;;;;6.20;1.27;;;22.20;65.80;;;;;;4430226;32;20114;-70
2022/06/09 11:11:32;;;;;;;6.03;1.45;;;22.20;65.80;;;;;;4430086;32;20093;-68
2022/06/09 11:14:06;;;;;;;3.13;1.50;;;22.20;65.70;;;;;;4430036;32;20071;-70
2022/06/09 11:16:41;;;;;;;5.10;1.38;;;22.20;65.60;;;;;;4430332;32;20081;-71
2022/06/09 11:19:32;;;;;;;6.28;1.50;;;22.20;65.50;;;;;;4430188;32;20125;-71
2022/06/09 11:22:21;;;;;;;7.05;1.40;;;22.20;65.40;;;;;;4428962;32;20074;-72
2022/06/09 11:24:51;;;;;;;4.15;1.30;;;22.20;65.30;;;;;;4397365;32;20159;-74
2022/06/09 11:27:38;;;;;;;5.82;1.23;;;22.20;65.30;;;;;;4399126;32;20098;-70
2022/06/09 11:30:28;;;;;;;4.00;0.80;;;22.20;65.20;;;;;;4398889;32;20086;-71
2022/06/09 11:33:00;;;;;;;3.08;1.25;;;22.20;65.20;;;;;;4398626;32;20074;-75
2022/06/09 11:35:49;;;;;;;2.90;0.88;;;22.20;65.10;;;;;;4399013;32;20083;-74
2022/06/09 11:38:53;;;;;;;3.17;1.00;;;22.30;65.00;;;;;;4399086;32;20103;-70
2022/06/09 11:41:34;;;;;;;6.40;2.05;;;22.20;64.90;;;;;;4398903;32;20091;-71
2022/06/09 11:44:06;;;;;;;7.40;1.77;;;22.30;64.90;;;;;;4397287;32;20091;-71
2022/06/09 11:46:36;;;;;;;5.78;1.20;;;22.30;64.90;;;;;;4398437;32;20110;-70
2022/06/09 11:49:06;;;;;;;6.53;1.20;;;22.30;64.90;;;;;;4398673;32;20277;-70
2022/06/09 11:51:34;;;;;;;4.97;1.35;;;22.30;64.80;;;;;;4398643;32;20113;-70
2022/06/09 11:54:04;;;;;;;6.85;1.13;;;22.30;64.80;;;;;;4398237;32;20161;-71
2022/06/09 11:56:43;;;;;;;4.10;1.10;;;22.30;64.70;;;;;;4398271;32;20087;-72
2022/06/09 11:59:11;;;;;;;4.35;1.42;;;22.30;64.60;;;;;;4398357;32;20083;-70
2022/06/09 12:01:38;;;;;;;6.95;1.10;;;22.30;64.50;;;;;;4397492;32;20102;-70
2022/06/09 12:04:28;;;;;;;4.70;1.20;;;22.30;64.50;;;;;;4398632;32;20087;-76
2022/06/09 12:07:11;;;;;;;7.00;1.17;;;22.30;64.40;;;;;;4398914;32;20075;-69
2022/06/09 12:10:14;;;;;;;4.27;1.30;;;22.30;64.20;;;;;;4398878;32;20487;-70
2022/06/09 12:12:44;;;;;;;8.57;1.33;;;22.40;64.10;;;;;;4398778;32;20075;-70
2022/06/09 12:15:27;;;;;;;4.80;1.20;;;22.40;64.30;;;;;;4398575;32;20607;-69
2022/06/09 12:18:24;;;;;;;3.07;1.17;;;22.40;64.00;;;;;;4398547;32;20604;-70
2022/06/09 12:20:50;;;;;;;5.18;1.13;;;22.40;63.70;;;;;;4398718;32;20206;-70
2022/06/09 12:23:34;;;;;;;5.40;1.10;;;22.50;63.80;;;;;;4411210;32;20094;-70
2022/06/09 12:26:12;;;;;;;3.60;1.10;;;22.40;63.50;;;;;;4429009;32;20085;-72
2022/06/09 12:28:49;;;;;;;4.47;1.25;;;22.50;63.60;;;;;;4429292;32;20133;-70
2022/06/09 12:31:30;;;;;;;3.45;1.10;;;22.50;63.50;;;;;;4429259;32;20131;-69
2022/06/09 12:34:11;;;;;;;3.72;1.25;;;22.50;63.40;;;;;;4431730;32;20224;-73
2022/06/09 12:36:48;;;;;;;4.25;1.00;;;22.50;63.40;;;;;;4431634;32;20089;-69
2022/06/09 12:39:21;;;;;;;2.88;0.95;;;22.50;63.30;;;;;;4431543;32;20220;-70
2022/06/09 12:42:18;;;;;;;4.53;0.90;;;22.50;63.20;;;;;;4430992;32;20075;-70
2022/06/09 12:44:49;;;;;;;3.03;1.00;;;22.50;63.10;;;;;;4431729;32;20089;-70
2022/06/09 12:47:23;;;;;;;2.67;1.05;;;22.50;63.10;;;;;;4431784;32;20127;-72
2022/06/09 12:49:57;;;;;;;4.15;1.10;;;22.50;62.90;;;;;;4432002;32;20062;-70
2022/06/09 12:52:45;;;;;;;2.72;0.85;;;22.50;62.80;;;;;;4431421;32;20094;-71
2022/06/09 12:55:30;;;;;;;3.65;0.82;;;22.50;62.70;;;;;;4431613;32;20136;-70
2022/06/09 12:58:18;;;;;;;2.80;0.80;;;22.50;62.70;;;;;;4431375;32;20583;-70
2022/06/09 13:01:05;;;;;;;3.20;0.73;;;22.60;62.70;;;;;;4431241;32;20063;-71
2022/06/09 13:03:34;;;;;;;2.97;0.75;;;22.50;62.60;;;;;;4431024;32;20093;-71
2022/06/09 13:06:31;;;;;;;5.28;1.13;;;22.50;62.70;;;;;;4431183;32;20075;-73
2022/06/09 13:09:02;;;;;;;4.35;0.90;;;22.60;62.60;;;;;;4418475;32;20101;-70
2022/06/09 13:14:26;;;;;;;3.75;1.13;;;22.50;62.50;;;;;;4431096;32;20129;-71
2022/06/09 13:16:56;;;;;;;2.63;0.65;;;22.50;62.70;;;;;;4430522;32;20085;-70
2022/06/09 13:19:26;;;;;;;2.83;0.90;;;22.50;62.70;;;;;;4430692;32;20081;-70
2022/06/09 13:21:53;;;;;;;5.35;1.05;;;22.50;62.70;;;;;;4430949;32;20200;-70
2022/06/09 13:24:35;;;;;;;5.43;1.05;;;22.50;62.80;;;;;;4416738;32;20172;-70
2022/06/09 13:27:07;;;;;;;7.72;1.10;;;22.50;62.80;;;;;;4430586;32;20136;-75
2022/06/09 13:29:40;;;;;;;3.53;1.20;;;22.50;63.00;;;;;;4430618;32;20078;-74
2022/06/09 13:32:29;;;;;;;7.75;1.55;;;22.50;62.90;;;;;;4430965;32;20122;-77
2022/06/09 13:34:59;;;;;;;4.68;1.25;;;22.50;62.70;;;;;;4430805;32;20595;-71
2022/06/09 13:37:43;;;;;;;4.07;1.02;;;22.50;62.90;;;;;;4431212;32;20124;-70
2022/06/09 13:40:15;;;;;;;3.95;1.25;;;22.50;62.80;;;;;;4430369;32;20428;-71